sensor_id;sensor_type;location;lat;lon;timestamp;temperature;humidity
28010;DHT22;15334;49.494;8.410;2023-02-28T00:01:33;1.30;98.00
28010;DHT22;15334;49.494;8.410;2023-02-28T00:04:01;1.30;98.20
28010;DHT22;15334;49.494;8.410;2023-02-28T00:06:31;1.30;98.40
28010;DHT22;15334;49.494;8.410;2023-02-28T00:08:59;1.30;98.50
28010;DHT22;15334;49.494;8.410;2023-02-28T00:11:27;1.30;98.70
28010;DHT22;15334;49.494;8.410;2023-02-28T00:13:55;1.30;98.80
28010;DHT22;15334;49.494;8.410;2023-02-28T00:16:23;1.30;99.00
28010;DHT22;15334;49.494;8.410;2023-02-28T00:18:51;1.30;99.30
28010;DHT22;15334;49.494;8.410;2023-02-28T00:21:20;1.30;99.40
28010;DHT22;15334;49.494;8.410;2023-02-28T00:23:50;1.30;99.70
28010;DHT22;15334;49.494;8.410;2023-02-28T00:26:18;1.20;99.80
28010;DHT22;15334;49.494;8.410;2023-02-28T00:28:47;1.20;99.90
28010;DHT22;15334;49.494;8.410;2023-02-28T00:31:16;1.20;99.90
28010;DHT22;15334;49.494;8.410;2023-02-28T00:33:46;1.20;99.90
28010;DHT22;15334;49.494;8.410;2023-02-28T00:36:14;1.20;99.90
28010;DHT22;15334;49.494;8.410;2023-02-28T00:38:42;1.20;99.90
28010;DHT22;15334;49.494;8.410;2023-02-28T00:41:12;1.20;99.90
28010;DHT22;15334;49.494;8.410;2023-02-28T00:43:40;1.20;99.90
28010;DHT22;15334;49.494;8.410;2023-02-28T00:46:08;1.20;99.90
28010;DHT22;15334;49.494;8.410;2023-02-28T00:48:36;1.10;99.90
28010;DHT22;15334;49.494;8.410;2023-02-28T00:51:05;1.00;99.90
28010;DHT22;15334;49.494;8.410;2023-02-28T00:53:33;1.00;99.90
28010;DHT22;15334;49.494;8.410;2023-02-28T00:56:01;1.00;99.90
28010;DHT22;15334;49.494;8.410;2023-02-28T00:58:30;1.00;99.90
28010;DHT22;15334;49.494;8.410;2023-02-28T01:00:58;0.90;99.90
28010;DHT22;15334;49.494;8.410;2023-02-28T01:03:26;0.90;99.90
28010;DHT22;15334;49.494;8.410;2023-02-28T01:05:54;0.90;99.90
28010;DHT22;15334;49.494;8.410;2023-02-28T01:08:23;0.90;99.90
28010;DHT22;15334;49.494;8.410;2023-02-28T01:10:51;0.80;99.90
28010;DHT22;15334;49.494;8.410;2023-02-28T01:13:23;0.90;99.90
28010;DHT22;15334;49.494;8.410;2023-02-28T01:15:57;0.80;99.90
28010;DHT22;15334;49.494;8.410;2023-02-28T01:18:25;0.80;99.90
28010;DHT22;15334;49.494;8.410;2023-02-28T01:20:53;0.80;99.90
28010;DHT22;15334;49.494;8.410;2023-02-28T01:23:22;0.80;99.90
28010;DHT22;15334;49.494;8.410;2023-02-28T01:25:51;0.70;99.90
28010;DHT22;15334;49.494;8.410;2023-02-28T01:28:19;0.70;99.90
28010;DHT22;15334;49.494;8.410;2023-02-28T01:30:48;0.70;99.90
28010;DHT22;15334;49.494;8.410;2023-02-28T01:33:17;0.70;99.90
28010;DHT22;15334;49.494;8.410;2023-02-28T01:35:45;0.70;99.90
28010;DHT22;15334;49.494;8.410;2023-02-28T01:38:14;0.70;99.90
28010;DHT22;15334;49.494;8.410;2023-02-28T01:40:49;0.70;99.90
28010;DHT22;15334;49.494;8.410;2023-02-28T01:43:21;0.60;99.90
28010;DHT22;15334;49.494;8.410;2023-02-28T01:45:50;0.60;99.90
28010;DHT22;15334;49.494;8.410;2023-02-28T01:48:24;0.60;99.90
28010;DHT22;15334;49.494;8.410;2023-02-28T01:50:55;0.60;99.90
28010;DHT22;15334;49.494;8.410;2023-02-28T01:53:33;0.60;99.90
28010;DHT22;15334;49.494;8.410;2023-02-28T01:56:05;0.60;99.90
28010;DHT22;15334;49.494;8.410;2023-02-28T01:58:34;0.60;99.90
28010;DHT22;15334;49.494;8.410;2023-02-28T02:01:02;0.60;99.90
28010;DHT22;15334;49.494;8.410;2023-02-28T02:03:32;0.60;99.90
28010;DHT22;15334;49.494;8.410;2023-02-28T02:06:00;0.60;99.90
28010;DHT22;15334;49.494;8.410;2023-02-28T02:08:29;0.60;99.90
28010;DHT22;15334;49.494;8.410;2023-02-28T02:10:59;0.60;99.90
28010;DHT22;15334;49.494;8.410;2023-02-28T02:13:42;0.50;99.90
28010;DHT22;15334;49.494;8.410;2023-02-28T02:16:32;0.50;99.90
28010;DHT22;15334;49.494;8.410;2023-02-28T02:19:20;0.50;99.90
28010;DHT22;15334;49.494;8.410;2023-02-28T02:22:21;0.50;99.90
28010;DHT22;15334;49.494;8.410;2023-02-28T02:25:11;0.50;99.90
28010;DHT22;15334;49.494;8.410;2023-02-28T02:27:59;0.50;99.90
28010;DHT22;15334;49.494;8.410;2023-02-28T02:30:58;0.40;99.90
28010;DHT22;15334;49.494;8.410;2023-02-28T02:36:27;0.40;99.90
28010;DHT22;15334;49.494;8.410;2023-02-28T02:39:03;0.40;99.90
28010;DHT22;15334;49.494;8.410;2023-02-28T02:41:36;0.40;99.90
28010;DHT22;15334;49.494;8.410;2023-02-28T02:44:13;0.40;99.90
28010;DHT22;15334;49.494;8.410;2023-02-28T02:46:44;0.40;99.90
28010;DHT22;15334;49.494;8.410;2023-02-28T02:49:16;0.40;99.90
28010;DHT22;15334;49.494;8.410;2023-02-28T02:51:54;0.40;99.90
28010;DHT22;15334;49.494;8.410;2023-02-28T02:54:28;0.50;99.90
28010;DHT22;15334;49.494;8.410;2023-02-28T02:57:03;0.50;99.90
28010;DHT22;15334;49.494;8.410;2023-02-28T02:59:38;0.50;99.90
28010;DHT22;15334;49.494;8.410;2023-02-28T03:02:11;0.50;99.90
28010;DHT22;15334;49.494;8.410;2023-02-28T03:04:42;0.40;99.90
28010;DHT22;15334;49.494;8.410;2023-02-28T03:07:14;0.40;99.90
28010;DHT22;15334;49.494;8.410;2023-02-28T03:09:53;0.50;99.90
28010;DHT22;15334;49.494;8.410;2023-02-28T03:12:33;0.40;99.90
28010;DHT22;15334;49.494;8.410;2023-02-28T03:15:18;0.40;99.90
28010;DHT22;15334;49.494;8.410;2023-02-28T03:18:01;0.40;99.90
28010;DHT22;15334;49.494;8.410;2023-02-28T03:20:38;0.30;99.90
28010;DHT22;15334;49.494;8.410;2023-02-28T03:23:15;0.20;99.90
28010;DHT22;15334;49.494;8.410;2023-02-28T03:25:54;0.20;99.90
28010;DHT22;15334;49.494;8.410;2023-02-28T03:28:31;0.30;99.90
28010;DHT22;15334;49.494;8.410;2023-02-28T03:31:07;0.30;99.90
28010;DHT22;15334;49.494;8.410;2023-02-28T03:33:40;0.20;99.90
28010;DHT22;15334;49.494;8.410;2023-02-28T03:36:18;0.20;99.90
28010;DHT22;15334;49.494;8.410;2023-02-28T03:38:51;0.20;99.90
28010;DHT22;15334;49.494;8.410;2023-02-28T03:41:23;0.20;99.90
28010;DHT22;15334;49.494;8.410;2023-02-28T03:43:56;0.20;99.90
28010;DHT22;15334;49.494;8.410;2023-02-28T03:46:26;0.20;99.90
28010;DHT22;15334;49.494;8.410;2023-02-28T03:49:02;0.20;99.90
28010;DHT22;15334;49.494;8.410;2023-02-28T03:51:40;0.10;99.90
28010;DHT22;15334;49.494;8.410;2023-02-28T03:54:13;0.10;99.90
28010;DHT22;15334;49.494;8.410;2023-02-28T03:56:48;0.20;99.90
28010;DHT22;15334;49.494;8.410;2023-02-28T03:59:22;0.20;99.90
28010;DHT22;15334;49.494;8.410;2023-02-28T04:01:57;0.20;99.90
28010;DHT22;15334;49.494;8.410;2023-02-28T04:04:35;0.20;99.90
28010;DHT22;15334;49.494;8.410;2023-02-28T04:07:10;0.10;99.90
28010;DHT22;15334;49.494;8.410;2023-02-28T04:09:40;0.20;99.90
28010;DHT22;15334;49.494;8.410;2023-02-28T04:12:16;0.10;99.90
28010;DHT22;15334;49.494;8.410;2023-02-28T04:14:45;0.10;99.90
28010;DHT22;15334;49.494;8.410;2023-02-28T04:17:19;0.10;99.90
28010;DHT22;15334;49.494;8.410;2023-02-28T04:19:47;0.10;99.90
28010;DHT22;15334;49.494;8.410;2023-02-28T04:22:17;0.00;99.90
28010;DHT22;15334;49.494;8.410;2023-02-28T04:24:49;0.00;99.90
28010;DHT22;15334;49.494;8.410;2023-02-28T04:27:22;0.10;99.90
28010;DHT22;15334;49.494;8.410;2023-02-28T04:29:55;0.00;99.90
28010;DHT22;15334;49.494;8.410;2023-02-28T04:32:26;0.00;99.90
28010;DHT22;15334;49.494;8.410;2023-02-28T04:35:03;0.00;99.90
28010;DHT22;15334;49.494;8.410;2023-02-28T04:37:38;0.00;99.90
28010;DHT22;15334;49.494;8.410;2023-02-28T04:40:10;0.00;99.90
28010;DHT22;15334;49.494;8.410;2023-02-28T04:42:44;0.10;99.90
28010;DHT22;15334;49.494;8.410;2023-02-28T04:45:24;0.10;99.90
28010;DHT22;15334;49.494;8.410;2023-02-28T04:47:58;0.10;99.90
28010;DHT22;15334;49.494;8.410;2023-02-28T04:50:32;0.10;99.90
28010;DHT22;15334;49.494;8.410;2023-02-28T04:53:03;0.00;99.90
28010;DHT22;15334;49.494;8.410;2023-02-28T04:55:38;0.00;99.90
28010;DHT22;15334;49.494;8.410;2023-02-28T04:58:11;0.00;99.90
28010;DHT22;15334;49.494;8.410;2023-02-28T05:00:40;0.10;99.90
28010;DHT22;15334;49.494;8.410;2023-02-28T05:03:11;0.10;99.90
28010;DHT22;15334;49.494;8.410;2023-02-28T05:05:47;0.00;99.90
28010;DHT22;15334;49.494;8.410;2023-02-28T05:08:25;0.10;99.90
28010;DHT22;15334;49.494;8.410;2023-02-28T05:11:01;0.10;99.90
28010;DHT22;15334;49.494;8.410;2023-02-28T05:13:34;0.10;99.90
28010;DHT22;15334;49.494;8.410;2023-02-28T05:16:16;0.10;99.90
28010;DHT22;15334;49.494;8.410;2023-02-28T05:18:58;0.10;99.90
28010;DHT22;15334;49.494;8.410;2023-02-28T05:21:33;0.10;99.90
28010;DHT22;15334;49.494;8.410;2023-02-28T05:24:05;0.20;99.90
28010;DHT22;15334;49.494;8.410;2023-02-28T05:26:42;0.10;99.90
28010;DHT22;15334;49.494;8.410;2023-02-28T05:29:19;0.20;99.90
28010;DHT22;15334;49.494;8.410;2023-02-28T05:31:50;0.20;99.90
28010;DHT22;15334;49.494;8.410;2023-02-28T05:34:20;0.30;99.90
28010;DHT22;15334;49.494;8.410;2023-02-28T05:36:49;0.30;99.90
28010;DHT22;15334;49.494;8.410;2023-02-28T05:39:26;0.30;99.90
28010;DHT22;15334;49.494;8.410;2023-02-28T05:41:58;0.30;99.90
28010;DHT22;15334;49.494;8.410;2023-02-28T05:44:30;0.20;99.90
28010;DHT22;15334;49.494;8.410;2023-02-28T05:47:18;0.20;99.90
28010;DHT22;15334;49.494;8.410;2023-02-28T05:49:49;0.20;99.90
28010;DHT22;15334;49.494;8.410;2023-02-28T05:52:20;0.20;99.90
28010;DHT22;15334;49.494;8.410;2023-02-28T05:54:53;0.20;99.90
28010;DHT22;15334;49.494;8.410;2023-02-28T05:57:24;0.20;99.90
28010;DHT22;15334;49.494;8.410;2023-02-28T05:59:55;0.10;99.90
28010;DHT22;15334;49.494;8.410;2023-02-28T06:02:25;0.10;99.90
28010;DHT22;15334;49.494;8.410;2023-02-28T06:04:53;0.10;99.90
28010;DHT22;15334;49.494;8.410;2023-02-28T06:07:21;0.00;99.90
28010;DHT22;15334;49.494;8.410;2023-02-28T06:09:49;0.10;99.90
28010;DHT22;15334;49.494;8.410;2023-02-28T06:12:17;0.00;99.90
28010;DHT22;15334;49.494;8.410;2023-02-28T06:14:48;0.00;99.90
28010;DHT22;15334;49.494;8.410;2023-02-28T06:17:16;0.00;99.90
28010;DHT22;15334;49.494;8.410;2023-02-28T06:19:44;0.00;99.90
28010;DHT22;15334;49.494;8.410;2023-02-28T06:22:14;0.00;99.90
28010;DHT22;15334;49.494;8.410;2023-02-28T06:24:42;0.00;99.90
28010;DHT22;15334;49.494;8.410;2023-02-28T06:27:10;0.10;99.90
28010;DHT22;15334;49.494;8.410;2023-02-28T06:29:39;0.10;99.90
28010;DHT22;15334;49.494;8.410;2023-02-28T06:32:11;0.00;99.90
28010;DHT22;15334;49.494;8.410;2023-02-28T06:34:39;0.00;99.90
28010;DHT22;15334;49.494;8.410;2023-02-28T06:37:07;0.00;99.90
28010;DHT22;15334;49.494;8.410;2023-02-28T06:39:35;0.10;99.90
28010;DHT22;15334;49.494;8.410;2023-02-28T06:42:04;0.10;99.90
28010;DHT22;15334;49.494;8.410;2023-02-28T06:44:32;0.20;99.90
28010;DHT22;15334;49.494;8.410;2023-02-28T06:47:03;0.20;99.90
28010;DHT22;15334;49.494;8.410;2023-02-28T06:49:34;0.20;99.90
28010;DHT22;15334;49.494;8.410;2023-02-28T06:52:03;0.30;99.90
28010;DHT22;15334;49.494;8.410;2023-02-28T06:54:31;0.30;99.90
28010;DHT22;15334;49.494;8.410;2023-02-28T06:56:59;0.30;99.90
28010;DHT22;15334;49.494;8.410;2023-02-28T06:59:27;0.30;99.90
28010;DHT22;15334;49.494;8.410;2023-02-28T07:01:55;0.30;99.90
28010;DHT22;15334;49.494;8.410;2023-02-28T07:04:23;0.40;99.90
28010;DHT22;15334;49.494;8.410;2023-02-28T07:06:52;0.40;99.90
28010;DHT22;15334;49.494;8.410;2023-02-28T07:09:23;0.40;99.90
28010;DHT22;15334;49.494;8.410;2023-02-28T07:11:56;0.40;99.90
28010;DHT22;15334;49.494;8.410;2023-02-28T07:14:24;0.50;99.90
28010;DHT22;15334;49.494;8.410;2023-02-28T07:16:52;0.60;99.90
28010;DHT22;15334;49.494;8.410;2023-02-28T07:19:20;0.60;99.90
28010;DHT22;15334;49.494;8.410;2023-02-28T07:21:48;0.60;99.90
28010;DHT22;15334;49.494;8.410;2023-02-28T07:24:18;0.70;99.90
28010;DHT22;15334;49.494;8.410;2023-02-28T07:26:46;0.70;99.90
28010;DHT22;15334;49.494;8.410;2023-02-28T07:29:14;0.80;99.90
28010;DHT22;15334;49.494;8.410;2023-02-28T07:31:45;0.80;99.90
28010;DHT22;15334;49.494;8.410;2023-02-28T07:34:13;0.80;99.90
28010;DHT22;15334;49.494;8.410;2023-02-28T07:36:41;0.80;99.90
28010;DHT22;15334;49.494;8.410;2023-02-28T07:39:09;0.90;99.90
28010;DHT22;15334;49.494;8.410;2023-02-28T07:41:38;1.10;99.90
28010;DHT22;15334;49.494;8.410;2023-02-28T07:44:10;1.30;99.90
28010;DHT22;15334;49.494;8.410;2023-02-28T07:46:39;1.50;99.90
28010;DHT22;15334;49.494;8.410;2023-02-28T07:49:07;1.60;99.90
28010;DHT22;15334;49.494;8.410;2023-02-28T07:51:35;1.70;99.90
28010;DHT22;15334;49.494;8.410;2023-02-28T07:54:03;1.70;99.90
28010;DHT22;15334;49.494;8.410;2023-02-28T07:56:31;1.80;99.90
28010;DHT22;15334;49.494;8.410;2023-02-28T07:59:01;1.90;99.90
28010;DHT22;15334;49.494;8.410;2023-02-28T08:01:29;2.00;99.90
28010;DHT22;15334;49.494;8.410;2023-02-28T08:03:57;2.00;99.90
28010;DHT22;15334;49.494;8.410;2023-02-28T08:06:25;2.00;99.90
28010;DHT22;15334;49.494;8.410;2023-02-28T08:08:53;2.10;99.90
28010;DHT22;15334;49.494;8.410;2023-02-28T08:11:24;2.20;99.90
28010;DHT22;15334;49.494;8.410;2023-02-28T08:13:52;2.00;99.90
28010;DHT22;15334;49.494;8.410;2023-02-28T08:16:21;1.90;99.90
28010;DHT22;15334;49.494;8.410;2023-02-28T08:18:50;1.80;99.90
28010;DHT22;15334;49.494;8.410;2023-02-28T08:21:20;1.90;99.90
28010;DHT22;15334;49.494;8.410;2023-02-28T08:23:51;2.10;99.90
28010;DHT22;15334;49.494;8.410;2023-02-28T08:26:19;2.10;99.90
28010;DHT22;15334;49.494;8.410;2023-02-28T08:28:48;2.10;99.90
28010;DHT22;15334;49.494;8.410;2023-02-28T08:31:16;2.20;99.90
28010;DHT22;15334;49.494;8.410;2023-02-28T08:33:46;2.20;99.90
28010;DHT22;15334;49.494;8.410;2023-02-28T08:36:17;2.30;99.90
28010;DHT22;15334;49.494;8.410;2023-02-28T08:38:45;2.40;99.90
28010;DHT22;15334;49.494;8.410;2023-02-28T08:41:17;2.40;99.90
28010;DHT22;15334;49.494;8.410;2023-02-28T08:43:45;2.60;99.90
28010;DHT22;15334;49.494;8.410;2023-02-28T08:46:13;2.70;99.90
28010;DHT22;15334;49.494;8.410;2023-02-28T08:48:41;2.70;99.90
28010;DHT22;15334;49.494;8.410;2023-02-28T08:51:15;2.70;99.90
28010;DHT22;15334;49.494;8.410;2023-02-28T08:53:46;2.80;99.90
28010;DHT22;15334;49.494;8.410;2023-02-28T08:56:16;2.70;99.90
28010;DHT22;15334;49.494;8.410;2023-02-28T08:58:45;2.80;99.90
28010;DHT22;15334;49.494;8.410;2023-02-28T09:01:15;2.80;99.90
28010;DHT22;15334;49.494;8.410;2023-02-28T09:03:44;2.80;99.90
28010;DHT22;15334;49.494;8.410;2023-02-28T09:06:15;2.90;99.90
28010;DHT22;15334;49.494;8.410;2023-02-28T09:08:44;2.90;99.90
28010;DHT22;15334;49.494;8.410;2023-02-28T09:11:12;3.00;99.90
28010;DHT22;15334;49.494;8.410;2023-02-28T09:13:46;3.20;99.90
28010;DHT22;15334;49.494;8.410;2023-02-28T09:16:16;3.30;99.90
28010;DHT22;15334;49.494;8.410;2023-02-28T09:18:44;3.40;99.90
28010;DHT22;15334;49.494;8.410;2023-02-28T09:21:17;3.40;99.90
28010;DHT22;15334;49.494;8.410;2023-02-28T09:23:48;3.50;99.90
28010;DHT22;15334;49.494;8.410;2023-02-28T09:26:18;3.60;99.90
28010;DHT22;15334;49.494;8.410;2023-02-28T09:28:46;3.60;99.90
28010;DHT22;15334;49.494;8.410;2023-02-28T09:31:19;3.50;99.90
28010;DHT22;15334;49.494;8.410;2023-02-28T09:33:49;3.40;99.90
28010;DHT22;15334;49.494;8.410;2023-02-28T09:36:18;3.30;99.90
28010;DHT22;15334;49.494;8.410;2023-02-28T09:38:53;3.50;99.90
28010;DHT22;15334;49.494;8.410;2023-02-28T09:41:29;3.60;99.90
28010;DHT22;15334;49.494;8.410;2023-02-28T09:44:04;3.70;99.90
28010;DHT22;15334;49.494;8.410;2023-02-28T09:46:44;3.60;99.90
28010;DHT22;15334;49.494;8.410;2023-02-28T09:49:22;3.60;99.90
28010;DHT22;15334;49.494;8.410;2023-02-28T09:52:00;3.60;99.90
28010;DHT22;15334;49.494;8.410;2023-02-28T09:54:32;3.70;99.90
28010;DHT22;15334;49.494;8.410;2023-02-28T09:57:08;3.70;99.90
28010;DHT22;15334;49.494;8.410;2023-02-28T09:59:55;3.50;99.90
28010;DHT22;15334;49.494;8.410;2023-02-28T10:02:49;3.50;99.90
28010;DHT22;15334;49.494;8.410;2023-02-28T10:05:34;3.70;99.90
28010;DHT22;15334;49.494;8.410;2023-02-28T10:08:15;3.70;99.90
28010;DHT22;15334;49.494;8.410;2023-02-28T10:10:49;3.90;99.90
28010;DHT22;15334;49.494;8.410;2023-02-28T10:13:23;4.00;99.70
28010;DHT22;15334;49.494;8.410;2023-02-28T10:16:01;4.30;99.20
28010;DHT22;15334;49.494;8.410;2023-02-28T10:18:38;4.50;98.90
28010;DHT22;15334;49.494;8.410;2023-02-28T10:21:23;4.50;98.50
28010;DHT22;15334;49.494;8.410;2023-02-28T10:24:02;4.50;98.30
28010;DHT22;15334;49.494;8.410;2023-02-28T10:26:32;4.70;98.20
28010;DHT22;15334;49.494;8.410;2023-02-28T10:29:03;4.90;98.00
28010;DHT22;15334;49.494;8.410;2023-02-28T10:31:40;4.90;97.10
28010;DHT22;15334;49.494;8.410;2023-02-28T10:34:34;4.70;97.10
28010;DHT22;15334;49.494;8.410;2023-02-28T10:37:32;4.70;97.30
28010;DHT22;15334;49.494;8.410;2023-02-28T10:40:33;4.80;97.00
28010;DHT22;15334;49.494;8.410;2023-02-28T10:46:14;5.20;96.10
28010;DHT22;15334;49.494;8.410;2023-02-28T10:49:21;5.40;95.80
28010;DHT22;15334;49.494;8.410;2023-02-28T10:52:13;5.00;95.60
28010;DHT22;15334;49.494;8.410;2023-02-28T10:55:27;4.80;95.90
28010;DHT22;15334;49.494;8.410;2023-02-28T10:58:45;4.70;96.00
28010;DHT22;15334;49.494;8.410;2023-02-28T11:01:41;4.70;96.20
28010;DHT22;15334;49.494;8.410;2023-02-28T11:04:43;4.80;95.80
28010;DHT22;15334;49.494;8.410;2023-02-28T11:07:53;4.80;95.90
28010;DHT22;15334;49.494;8.410;2023-02-28T11:10:46;5.40;95.50
28010;DHT22;15334;49.494;8.410;2023-02-28T11:18:58;8.90;90.50
28010;DHT22;15334;49.494;8.410;2023-02-28T11:21:55;11.00;83.10
28010;DHT22;15334;49.494;8.410;2023-02-28T11:24:42;12.30;76.40
28010;DHT22;15334;49.494;8.410;2023-02-28T11:27:39;11.70;73.20
28010;DHT22;15334;49.494;8.410;2023-02-28T11:30:37;10.80;75.60
28010;DHT22;15334;49.494;8.410;2023-02-28T11:33:42;11.20;74.00
28010;DHT22;15334;49.494;8.410;2023-02-28T11:36:18;10.60;75.50
28010;DHT22;15334;49.494;8.410;2023-02-28T11:38:48;11.70;74.10
28010;DHT22;15334;49.494;8.410;2023-02-28T11:41:34;12.90;70.40
28010;DHT22;15334;49.494;8.410;2023-02-28T11:44:29;12.80;68.50
28010;DHT22;15334;49.494;8.410;2023-02-28T11:47:04;12.40;67.80
28010;DHT22;15334;49.494;8.410;2023-02-28T11:49:43;11.20;69.80
28010;DHT22;15334;49.494;8.410;2023-02-28T11:52:21;10.90;71.10
28010;DHT22;15334;49.494;8.410;2023-02-28T11:55:07;11.00;71.50
28010;DHT22;15334;49.494;8.410;2023-02-28T11:57:57;12.00;68.90
28010;DHT22;15334;49.494;8.410;2023-02-28T12:00:40;12.80;67.10
28010;DHT22;15334;49.494;8.410;2023-02-28T12:03:26;14.00;64.60
28010;DHT22;15334;49.494;8.410;2023-02-28T12:06:05;13.80;62.90
28010;DHT22;15334;49.494;8.410;2023-02-28T12:08:49;13.80;63.70
28010;DHT22;15334;49.494;8.410;2023-02-28T12:11:31;13.60;61.70
28010;DHT22;15334;49.494;8.410;2023-02-28T12:14:20;13.90;62.30
28010;DHT22;15334;49.494;8.410;2023-02-28T12:17:02;15.10;60.20
28010;DHT22;15334;49.494;8.410;2023-02-28T12:19:39;15.80;58.20
28010;DHT22;15334;49.494;8.410;2023-02-28T12:22:27;14.70;58.60
28010;DHT22;15334;49.494;8.410;2023-02-28T12:25:22;15.40;58.30
28010;DHT22;15334;49.494;8.410;2023-02-28T12:27:52;16.90;57.00
28010;DHT22;15334;49.494;8.410;2023-02-28T12:30:25;18.20;54.10
28010;DHT22;15334;49.494;8.410;2023-02-28T12:33:02;19.30;52.00
28010;DHT22;15334;49.494;8.410;2023-02-28T12:35:34;20.50;50.70
28010;DHT22;15334;49.494;8.410;2023-02-28T12:38:10;20.80;48.20
28010;DHT22;15334;49.494;8.410;2023-02-28T12:40:47;19.10;49.20
28010;DHT22;15334;49.494;8.410;2023-02-28T12:43:18;18.20;50.50
28010;DHT22;15334;49.494;8.410;2023-02-28T12:45:50;18.40;50.60
28010;DHT22;15334;49.494;8.410;2023-02-28T12:48:24;18.10;50.80
28010;DHT22;15334;49.494;8.410;2023-02-28T12:50:53;17.60;51.50
28010;DHT22;15334;49.494;8.410;2023-02-28T12:53:27;15.70;53.20
28010;DHT22;15334;49.494;8.410;2023-02-28T12:56:08;14.40;54.80
28010;DHT22;15334;49.494;8.410;2023-02-28T12:58:39;13.30;57.20
28010;DHT22;15334;49.494;8.410;2023-02-28T13:04:43;13.50;58.00
28010;DHT22;15334;49.494;8.410;2023-02-28T13:10:13;13.40;57.50
28010;DHT22;15334;49.494;8.410;2023-02-28T13:12:48;12.40;59.00
28010;DHT22;15334;49.494;8.410;2023-02-28T13:15:21;11.40;61.00
28010;DHT22;15334;49.494;8.410;2023-02-28T13:17:53;10.30;64.20
28010;DHT22;15334;49.494;8.410;2023-02-28T13:20:25;10.00;65.20
28010;DHT22;15334;49.494;8.410;2023-02-28T13:22:54;8.70;67.50
28010;DHT22;15334;49.494;8.410;2023-02-28T13:25:52;8.20;70.30
28010;DHT22;15334;49.494;8.410;2023-02-28T13:31:26;7.60;73.50
28010;DHT22;15334;49.494;8.410;2023-02-28T13:34:12;7.40;73.10
28010;DHT22;15334;49.494;8.410;2023-02-28T13:36:40;7.30;73.50
28010;DHT22;15334;49.494;8.410;2023-02-28T13:42:34;7.40;74.40
28010;DHT22;15334;49.494;8.410;2023-02-28T13:45:22;7.20;74.40
28010;DHT22;15334;49.494;8.410;2023-02-28T13:47:56;6.90;75.00
28010;DHT22;15334;49.494;8.410;2023-02-28T13:50:32;7.10;75.30
28010;DHT22;15334;49.494;8.410;2023-02-28T13:56:16;7.30;74.30
28010;DHT22;15334;49.494;8.410;2023-02-28T13:58:51;7.10;75.10
28010;DHT22;15334;49.494;8.410;2023-02-28T14:01:55;7.20;75.20
28010;DHT22;15334;49.494;8.410;2023-02-28T14:04:46;6.90;75.20
28010;DHT22;15334;49.494;8.410;2023-02-28T14:07:20;6.70;76.20
28010;DHT22;15334;49.494;8.410;2023-02-28T14:09:58;6.80;76.50
28010;DHT22;15334;49.494;8.410;2023-02-28T14:18:22;6.70;77.40
28010;DHT22;15334;49.494;8.410;2023-02-28T14:20:57;7.00;77.50
28010;DHT22;15334;49.494;8.410;2023-02-28T14:29:54;7.40;76.90
28010;DHT22;15334;49.494;8.410;2023-02-28T14:32:28;6.90;77.00
28010;DHT22;15334;49.494;8.410;2023-02-28T14:35:05;6.60;78.40
28010;DHT22;15334;49.494;8.410;2023-02-28T14:37:42;6.80;78.80
28010;DHT22;15334;49.494;8.410;2023-02-28T14:40:27;6.80;77.90
28010;DHT22;15334;49.494;8.410;2023-02-28T14:43:04;6.90;78.00
28010;DHT22;15334;49.494;8.410;2023-02-28T14:45:35;6.80;79.30
28010;DHT22;15334;49.494;8.410;2023-02-28T14:48:09;6.90;77.80
28010;DHT22;15334;49.494;8.410;2023-02-28T14:50:38;6.80;78.50
28010;DHT22;15334;49.494;8.410;2023-02-28T14:53:17;6.50;79.00
28010;DHT22;15334;49.494;8.410;2023-02-28T14:55:47;6.40;78.80
28010;DHT22;15334;49.494;8.410;2023-02-28T14:58:23;6.30;79.70
28010;DHT22;15334;49.494;8.410;2023-02-28T15:00:56;6.10;80.50
28010;DHT22;15334;49.494;8.410;2023-02-28T15:03:36;6.00;81.10
28010;DHT22;15334;49.494;8.410;2023-02-28T15:06:14;5.80;82.00
28010;DHT22;15334;49.494;8.410;2023-02-28T15:09:07;5.90;82.00
28010;DHT22;15334;49.494;8.410;2023-02-28T15:11:37;6.00;81.80
28010;DHT22;15334;49.494;8.410;2023-02-28T15:14:07;6.10;82.10
28010;DHT22;15334;49.494;8.410;2023-02-28T15:16:40;6.20;81.40
28010;DHT22;15334;49.494;8.410;2023-02-28T15:19:17;6.30;80.90
28010;DHT22;15334;49.494;8.410;2023-02-28T15:21:49;6.10;81.00
28010;DHT22;15334;49.494;8.410;2023-02-28T15:24:30;5.90;81.60
28010;DHT22;15334;49.494;8.410;2023-02-28T15:27:04;5.70;82.40
28010;DHT22;15334;49.494;8.410;2023-02-28T15:29:43;5.80;82.70
28010;DHT22;15334;49.494;8.410;2023-02-28T15:32:26;5.80;82.70
28010;DHT22;15334;49.494;8.410;2023-02-28T15:35:27;5.80;82.00
28010;DHT22;15334;49.494;8.410;2023-02-28T15:37:57;6.00;82.20
28010;DHT22;15334;49.494;8.410;2023-02-28T15:40:33;5.90;81.30
28010;DHT22;15334;49.494;8.410;2023-02-28T15:43:16;6.00;81.50
28010;DHT22;15334;49.494;8.410;2023-02-28T15:45:59;6.10;81.60
28010;DHT22;15334;49.494;8.410;2023-02-28T15:48:30;6.00;81.50
28010;DHT22;15334;49.494;8.410;2023-02-28T15:51:07;6.00;82.10
28010;DHT22;15334;49.494;8.410;2023-02-28T15:53:38;5.90;82.50
28010;DHT22;15334;49.494;8.410;2023-02-28T15:56:22;5.90;82.60
28010;DHT22;15334;49.494;8.410;2023-02-28T15:58:55;5.70;83.10
28010;DHT22;15334;49.494;8.410;2023-02-28T16:01:28;5.70;83.30
28010;DHT22;15334;49.494;8.410;2023-02-28T16:04:01;5.70;83.20
28010;DHT22;15334;49.494;8.410;2023-02-28T16:06:38;5.70;83.00
28010;DHT22;15334;49.494;8.410;2023-02-28T16:09:16;5.80;83.10
28010;DHT22;15334;49.494;8.410;2023-02-28T16:11:49;5.70;83.20
28010;DHT22;15334;49.494;8.410;2023-02-28T16:14:21;5.70;83.60
28010;DHT22;15334;49.494;8.410;2023-02-28T16:16:52;5.80;83.70
28010;DHT22;15334;49.494;8.410;2023-02-28T16:19:21;5.80;83.40
28010;DHT22;15334;49.494;8.410;2023-02-28T16:21:51;5.50;83.40
28010;DHT22;15334;49.494;8.410;2023-02-28T16:24:20;5.40;83.80
28010;DHT22;15334;49.494;8.410;2023-02-28T16:26:52;5.30;84.40
28010;DHT22;15334;49.494;8.410;2023-02-28T16:29:28;5.20;84.70
28010;DHT22;15334;49.494;8.410;2023-02-28T16:31:58;5.20;84.70
28010;DHT22;15334;49.494;8.410;2023-02-28T16:34:26;5.10;85.00
28010;DHT22;15334;49.494;8.410;2023-02-28T16:37:11;5.10;85.60
28010;DHT22;15334;49.494;8.410;2023-02-28T16:39:41;5.10;85.50
28010;DHT22;15334;49.494;8.410;2023-02-28T16:42:15;5.10;85.70
28010;DHT22;15334;49.494;8.410;2023-02-28T16:44:44;5.20;85.90
28010;DHT22;15334;49.494;8.410;2023-02-28T16:47:14;5.20;85.70
28010;DHT22;15334;49.494;8.410;2023-02-28T16:49:43;5.10;85.80
28010;DHT22;15334;49.494;8.410;2023-02-28T16:52:15;5.10;86.10
28010;DHT22;15334;49.494;8.410;2023-02-28T16:54:44;5.10;86.40
28010;DHT22;15334;49.494;8.410;2023-02-28T16:57:19;5.10;86.50
28010;DHT22;15334;49.494;8.410;2023-02-28T16:59:49;5.20;87.20
28010;DHT22;15334;49.494;8.410;2023-02-28T17:02:22;5.20;86.80
28010;DHT22;15334;49.494;8.410;2023-02-28T17:04:55;5.30;87.20
28010;DHT22;15334;49.494;8.410;2023-02-28T17:07:27;5.40;87.40
28010;DHT22;15334;49.494;8.410;2023-02-28T17:10:14;5.30;86.60
28010;DHT22;15334;49.494;8.410;2023-02-28T17:12:50;5.30;86.90